»·PEaware :: N62DM KABQ-KPRC

N62DM :: KABQ-KPRC

FLIGHT INFORMATION

Flight Status: Arrived
Operator: Privately registered:
United States
More flights under this callsign
Pilot: Joe L. (24029)
Aircraft: DIAMOND DA-42 TWINSTAR
(DA42)
More flights by this aircraft type
Origin: KABQ Albuquerque Intl Sunport
United States
Destination: KPRC Love
United States
More flights between these airports :: More routes between these airports
Route: ABQ V12 DRK
File this flight plan on PilotEdge
Remarks:
Altitude:
(Current/Filed)
12,000ft
Speed:
(Current/Filed)
185kts
Departed: 23-Mar-19 12:54 PM
Arrived: 23-Mar-19 02:43 PM
Distance/Time
Traveled:
287nm/1:49
Distance/Time
To Go:
Arrived

Flight Plot

Page will automatically refresh every two minutes.

Flight plan parsing failed; only flown route is shown


Map Options




Map Legend


Flown Route
Filed Route
Departure Airport
Arrival Airport
Navaid (VOR, NDB)
Fix

Horizontal Profiles

Position Reports

Time Latitude Longitude Heading Altitude Ground
Speed
23-Mar-19 12:35 35.036659 -106.618208 136 5315ft 0kts
23-Mar-19 12:36 35.036659 -106.618207 136 5315ft 0kts
23-Mar-19 12:37 35.036658 -106.618206 136 5315ft 0kts
23-Mar-19 12:38 35.036658 -106.618206 136 5315ft 0kts
23-Mar-19 12:39 35.036657 -106.618205 136 5315ft 0kts
23-Mar-19 12:40 35.036656 -106.618204 136 5315ft 0kts
23-Mar-19 12:41 35.036656 -106.618203 136 5315ft 0kts
23-Mar-19 12:42 35.036655 -106.618203 136 5315ft 0kts
23-Mar-19 12:43 35.036654 -106.618202 136 5315ft 0kts
23-Mar-19 12:44 35.036629 -106.618173 136 5315ft 1kts
23-Mar-19 12:45 35.036167 -106.616940 137 5315ft 3kts
23-Mar-19 12:46 35.034560 -106.617963 102 5315ft 5kts
23-Mar-19 12:47 35.037228 -106.614549 43 5315ft 12kts
23-Mar-19 12:48 35.038094 -106.613770 113 5315ft 2kts
23-Mar-19 12:49 35.036543 -106.611360 128 5315ft 25kts
23-Mar-19 12:50 35.032966 -106.605790 64 5315ft 0kts
23-Mar-19 12:51 35.033034 -106.605672 42 5315ft 0kts
23-Mar-19 12:52 35.033035 -106.605670 42 5315ft 0kts
23-Mar-19 12:53 35.037602 -106.611205 309 5316ft 80kts
23-Mar-19 12:54 35.043006 -106.639224 264 6120ft 100kts
23-Mar-19 12:55 35.040134 -106.672904 265 7207ft 101kts
23-Mar-19 12:56 35.037666 -106.708324 268 8224ft 107kts
23-Mar-19 12:57 35.035299 -106.745894 268 9245ft 113kts
23-Mar-19 12:58 35.039783 -106.783874 281 10277ft 116kts
23-Mar-19 12:59 35.043924 -106.823681 268 11299ft 121kts
23-Mar-19 13:00 35.042576 -106.866103 271 12037ft 141kts
23-Mar-19 13:01 35.041285 -106.919597 271 12025ft 164kts
23-Mar-19 13:02 35.039885 -106.975545 271 12025ft 165kts
23-Mar-19 13:03 35.038464 -107.031685 270 12025ft 165kts
23-Mar-19 13:04 35.036959 -107.087928 270 12025ft 166kts
23-Mar-19 13:05 35.035511 -107.144462 270 12023ft 166kts
23-Mar-19 13:06 35.034010 -107.200824 270 12023ft 166kts
23-Mar-19 13:07 35.032457 -107.257071 270 12023ft 166kts
23-Mar-19 13:08 35.030996 -107.313551 270 12023ft 166kts
23-Mar-19 13:09 35.029396 -107.370274 270 12023ft 166kts
23-Mar-19 13:10 35.027777 -107.426841 270 12023ft 166kts
23-Mar-19 13:11 35.026138 -107.483345 270 12023ft 166kts
23-Mar-19 13:12 35.024463 -107.540108 270 12024ft 167kts
23-Mar-19 13:13 35.022617 -107.597111 270 12024ft 167kts
23-Mar-19 13:14 35.020887 -107.653819 270 12024ft 167kts
23-Mar-19 13:15 35.019127 -107.710819 270 12024ft 167kts
23-Mar-19 13:16 35.017318 -107.767661 269 12011ft 168kts
23-Mar-19 13:17 35.015506 -107.824565 269 12010ft 167kts
23-Mar-19 13:18 35.013707 -107.881872 269 12005ft 171kts
23-Mar-19 13:19 35.011848 -107.938842 269 11992ft 165kts
23-Mar-19 13:20 35.010015 -107.994588 269 11991ft 164kts
23-Mar-19 13:21 35.008094 -108.050456 269 11993ft 165kts
23-Mar-19 13:22 35.006164 -108.106509 269 11993ft 166kts
23-Mar-19 13:23 35.004251 -108.162808 269 11993ft 166kts
23-Mar-19 13:24 35.002280 -108.219120 269 11993ft 166kts
23-Mar-19 13:25 35.000258 -108.275308 269 11994ft 166kts
23-Mar-19 13:26 34.998260 -108.331675 269 11994ft 166kts
23-Mar-19 13:27 34.996240 -108.388020 268 11994ft 166kts
23-Mar-19 13:28 34.994134 -108.444683 268 12006ft 170kts
23-Mar-19 13:29 34.992014 -108.502040 268 11992ft 167kts
23-Mar-19 13:30 34.989847 -108.558805 269 12001ft 168kts
23-Mar-19 13:31 34.987662 -108.615597 268 11991ft 167kts
23-Mar-19 13:32 34.985459 -108.672342 268 11991ft 167kts
23-Mar-19 13:33 34.983262 -108.728755 268 11991ft 167kts
23-Mar-19 13:34 34.980996 -108.785223 268 12018ft 166kts
23-Mar-19 13:35 34.978748 -108.841591 268 12019ft 166kts
23-Mar-19 13:36 34.976410 -108.898165 268 12024ft 168kts
23-Mar-19 13:37 34.974095 -108.955445 268 12021ft 170kts
23-Mar-19 13:38 34.971726 -109.012825 268 12023ft 170kts
23-Mar-19 13:39 34.969340 -109.070120 268 12010ft 167kts
23-Mar-19 13:40 34.966909 -109.127533 267 12016ft 171kts
23-Mar-19 13:41 34.967525 -109.184990 274 12006ft 168kts
23-Mar-19 13:42 34.971247 -109.242053 274 12014ft 171kts
23-Mar-19 13:43 34.974966 -109.299750 274 12006ft 171kts
23-Mar-19 13:44 34.978608 -109.357148 275 11995ft 168kts
23-Mar-19 13:45 34.982240 -109.414093 274 12011ft 170kts
23-Mar-19 13:46 34.985831 -109.471875 274 12014ft 173kts
23-Mar-19 13:47 34.989437 -109.529759 274 12000ft 168kts
23-Mar-19 13:48 34.993015 -109.586974 274 12012ft 171kts
23-Mar-19 13:49 34.996573 -109.644536 274 12005ft 170kts
23-Mar-19 13:50 35.000128 -109.702347 274 12016ft 173kts
23-Mar-19 13:51 35.003652 -109.760419 274 12000ft 169kts
23-Mar-19 13:52 35.007084 -109.817933 274 12013ft 172kts
23-Mar-19 13:53 35.010547 -109.875805 274 12000ft 169kts
23-Mar-19 13:54 35.013913 -109.933013 274 12018ft 168kts
23-Mar-19 13:55 35.017266 -109.990315 274 12014ft 169kts
23-Mar-19 13:56 35.020579 -110.047597 274 12014ft 169kts
23-Mar-19 13:57 35.023920 -110.105039 273 12014ft 170kts
23-Mar-19 13:58 35.027196 -110.162638 273 12015ft 170kts
23-Mar-19 13:59 35.030501 -110.220494 273 12019ft 171kts
23-Mar-19 14:00 35.033747 -110.278262 273 12015ft 170kts
23-Mar-19 14:01 35.037023 -110.336424 273 12016ft 174kts
23-Mar-19 14:02 35.040251 -110.395041 273 12002ft 171kts
23-Mar-19 14:03 35.043421 -110.452843 273 12000ft 170kts
23-Mar-19 14:04 35.046542 -110.510692 273 12006ft 171kts
23-Mar-19 14:05 35.049644 -110.568520 273 12001ft 170kts
23-Mar-19 14:06 35.052732 -110.626433 273 11970ft 170kts
23-Mar-19 14:07 35.055794 -110.684380 273 11973ft 171kts
23-Mar-19 14:08 35.058857 -110.742527 273 11976ft 173kts
23-Mar-19 14:10 35.060731 -110.800724 257 11965ft 171kts
23-Mar-19 14:11 35.048795 -110.857155 257 11928ft 172kts
23-Mar-19 14:12 35.037174 -110.913480 256 11928ft 170kts
23-Mar-19 14:13 35.025562 -110.969680 256 11935ft 170kts
23-Mar-19 14:14 35.013975 -111.025735 257 11939ft 170kts
23-Mar-19 14:15 35.002363 -111.081597 256 11946ft 170kts
23-Mar-19 14:16 34.990650 -111.137902 256 11956ft 172kts
23-Mar-19 14:17 34.981223 -111.183117 256 11958ft 170kts
23-Mar-19 14:18 34.969513 -111.239092 256 11964ft 170kts
23-Mar-19 14:19 34.957789 -111.295101 256 11968ft 170kts
23-Mar-19 14:20 34.945943 -111.351369 256 11983ft 173kts
23-Mar-19 14:21 34.933998 -111.408043 256 11977ft 171kts
23-Mar-19 14:22 34.922236 -111.463909 256 11977ft 170kts
23-Mar-19 14:23 34.910310 -111.520285 256 11991ft 174kts
23-Mar-19 14:24 34.898281 -111.576868 256 11979ft 171kts
23-Mar-19 14:25 34.886593 -111.632007 256 11975ft 165kts
23-Mar-19 14:26 34.875116 -111.685772 256 11976ft 163kts
23-Mar-19 14:27 34.863695 -111.739291 256 11976ft 163kts
23-Mar-19 14:27 34.854152 -111.783749 256 11976ft 163kts
23-Mar-19 14:29 34.840767 -111.846197 256 11888ft 166kts
23-Mar-19 14:30 34.828776 -111.902012 255 11105ft 173kts
23-Mar-19 14:30 34.818498 -111.949468 255 10436ft 174kts
23-Mar-19 14:31 34.806359 -112.005925 255 9972ft 169kts
23-Mar-19 14:33 34.792159 -112.071076 254 9981ft 172kts
23-Mar-19 14:33 34.785698 -112.117841 259 9710ft 167kts
23-Mar-19 14:34 34.776506 -112.173628 255 9215ft 169kts
23-Mar-19 14:35 34.764835 -112.225568 251 8451ft 157kts
23-Mar-19 14:36 34.750753 -112.273590 247 7654ft 138kts
23-Mar-19 14:37 34.736179 -112.312381 241 7185ft 121kts
23-Mar-19 14:38 34.718497 -112.347367 233 6753ft 120kts
23-Mar-19 14:39 34.695666 -112.376072 217 5906ft 108kts
23-Mar-19 14:40 34.672665 -112.400153 219 5370ft 102kts
23-Mar-19 14:41 34.654258 -112.419635 220 5049ft 52kts
23-Mar-19 14:42 34.651536 -112.423645 290 5048ft 8kts
23-Mar-19 14:43 34.649381 -112.426331 246 5048ft 8kts

Navigation Log

Ident Type
Flight plan parsing failed, navigation log unavailable